Time;durP1;ratioP1;P1;durP2;ratioP2;P2;SDS_P1;SDS_P2;PMS_P1;PMS_P2;Temp;Humidity;BMP_temperature;BMP_pressure;BME280_temperature;BME280_humidity;BME280_pressure;Samples;Min_cycle;Max_cycle;Signal;HPM_P1;HPM_P2
2023/05/20 00:02:12;;;;;;;4.87;2.87;;;13.40;99.90;;;;;;5048530;28;20664;-61
2023/05/20 00:04:40;;;;;;;6.00;3.03;;;13.40;1.00;;;;;;5047610;28;20197;-61
2023/05/20 00:07:08;;;;;;;6.07;3.83;;;13.40;1.00;;;;;;5049210;28;20290;-61
2023/05/20 00:09:36;;;;;;;7.93;2.87;;;13.40;1.00;;;;;;5049297;28;20287;-61
2023/05/20 00:12:04;;;;;;;4.90;3.00;;;13.40;99.90;;;;;;5046633;28;20233;-61
2023/05/20 00:14:31;;;;;;;8.20;3.13;;;13.40;99.90;;;;;;5058841;28;20274;-61
2023/05/20 00:16:58;;;;;;;3.87;3.07;;;13.40;99.90;;;;;;5046142;28;20238;-61
2023/05/20 00:19:25;;;;;;;5.03;2.50;;;13.40;99.90;;;;;;5041577;28;20721;-61
2023/05/20 00:21:52;;;;;;;4.77;2.50;;;13.40;99.90;;;;;;5047347;28;20204;-61
2023/05/20 00:24:18;;;;;;;6.90;3.30;;;13.30;99.90;;;;;;5045372;28;20216;-62
2023/05/20 00:26:45;;;;;;;4.93;3.37;;;13.30;99.90;;;;;;5045203;28;20204;-62
2023/05/20 00:29:12;;;;;;;4.27;3.13;;;13.30;99.90;;;;;;5048018;28;20218;-61
2023/05/20 00:31:39;;;;;;;5.63;3.27;;;13.30;99.90;;;;;;5044346;28;20246;-61
2023/05/20 00:34:07;;;;;;;6.00;3.07;;;13.20;99.90;;;;;;5043956;28;20731;-61
2023/05/20 00:36:34;;;;;;;6.10;3.20;;;13.20;99.90;;;;;;5045016;28;21166;-61
2023/05/20 00:39:01;;;;;;;5.00;3.17;;;13.20;99.90;;;;;;5049025;28;20202;-61
2023/05/20 00:41:28;;;;;;;5.00;3.30;;;13.10;99.90;;;;;;5043720;28;20831;-61
2023/05/20 00:43:55;;;;;;;5.70;3.00;;;13.20;99.90;;;;;;5044501;28;21125;-61
2023/05/20 00:46:25;;;;;;;5.67;3.23;;;13.10;99.90;;;;;;5046859;28;20649;-61
2023/05/20 00:48:52;;;;;;;4.40;3.00;;;13.10;99.90;;;;;;5046052;28;20197;-61
2023/05/20 00:51:19;;;;;;;6.47;3.40;;;13.00;99.90;;;;;;5044809;28;20296;-61
2023/05/20 00:53:46;;;;;;;11.00;3.57;;;12.90;99.90;;;;;;5044839;28;20226;-61
2023/05/20 00:56:14;;;;;;;6.80;3.37;;;12.90;99.90;;;;;;5044763;28;20208;-61
2023/05/20 00:58:41;;;;;;;6.83;3.17;;;12.90;99.90;;;;;;5038815;28;20205;-61
2023/05/20 01:01:08;;;;;;;8.57;4.10;;;12.90;99.90;;;;;;5044917;28;20322;-62
2023/05/20 01:03:35;;;;;;;10.73;3.50;;;12.90;99.90;;;;;;5046164;28;20197;-61
2023/05/20 01:06:02;;;;;;;7.27;3.53;;;12.80;99.90;;;;;;5045657;28;20818;-61
2023/05/20 01:08:29;;;;;;;6.37;3.53;;;12.80;99.90;;;;;;5030202;28;20249;-61
2023/05/20 01:11:10;;;;;;;5.37;3.50;;;12.80;99.90;;;;;;5051582;28;20229;-61
2023/05/20 01:13:51;;;;;;;10.20;3.90;;;12.80;99.90;;;;;;5044883;28;20210;-61
2023/05/20 01:16:22;;;;;;;5.77;3.77;;;12.80;99.90;;;;;;5043624;28;20264;-61
2023/05/20 01:18:54;;;;;;;6.53;4.17;;;12.80;99.90;;;;;;5046441;28;20252;-63
2023/05/20 01:21:21;;;;;;;7.20;3.93;;;12.80;99.90;;;;;;5045109;28;20213;-61
2023/05/20 01:23:48;;;;;;;8.17;3.70;;;12.80;99.90;;;;;;5041954;28;20663;-62
2023/05/20 01:26:16;;;;;;;5.37;3.40;;;12.70;99.90;;;;;;5045312;28;20202;-61
2023/05/20 01:28:42;;;;;;;5.93;3.50;;;12.80;99.90;;;;;;5060225;28;20231;-61
2023/05/20 01:31:25;;;;;;;8.60;4.03;;;12.70;99.90;;;;;;5043649;28;20199;-61
2023/05/20 01:33:57;;;;;;;8.07;3.90;;;12.60;99.90;;;;;;5046942;28;20235;-62
2023/05/20 01:36:26;;;;;;;9.67;3.70;;;12.60;99.90;;;;;;5046250;28;20560;-61
2023/05/20 01:38:54;;;;;;;8.10;4.10;;;12.60;99.90;;;;;;5044545;28;20203;-61
2023/05/20 01:41:23;;;;;;;7.40;3.43;;;12.60;99.90;;;;;;5042098;28;20218;-61
2023/05/20 01:43:51;;;;;;;5.80;3.77;;;12.60;99.90;;;;;;5041267;28;20309;-61
2023/05/20 01:46:18;;;;;;;7.70;4.37;;;12.50;99.90;;;;;;5044467;28;20208;-61
2023/05/20 01:48:44;;;;;;;9.70;3.83;;;12.60;99.90;;;;;;5041618;28;20198;-60
2023/05/20 01:51:11;;;;;;;5.83;4.23;;;12.50;99.90;;;;;;5042829;28;20252;-61
2023/05/20 01:53:38;;;;;;;9.30;4.40;;;12.60;99.90;;;;;;5042406;28;20208;-60
2023/05/20 01:56:05;;;;;;;8.97;3.83;;;12.60;99.90;;;;;;5043827;28;20206;-62
2023/05/20 01:58:32;;;;;;;5.87;4.13;;;12.50;99.90;;;;;;5038967;28;20230;-62
2023/05/20 02:01:00;;;;;;;4.50;3.70;;;12.50;99.90;;;;;;5047646;28;20260;-62
2023/05/20 02:03:27;;;;;;;7.87;3.87;;;12.50;99.90;;;;;;5045262;28;20195;-62
2023/05/20 02:05:54;;;;;;;5.47;3.63;;;12.50;99.90;;;;;;5046336;28;20227;-64
2023/05/20 02:08:21;;;;;;;6.00;4.17;;;12.40;99.90;;;;;;5042642;28;20202;-62
2023/05/20 02:10:48;;;;;;;6.40;3.80;;;12.30;99.90;;;;;;5047732;28;20357;-62
2023/05/20 02:13:15;;;;;;;9.93;4.47;;;12.30;99.90;;;;;;5042592;28;20211;-60
2023/05/20 02:15:42;;;;;;;7.23;4.10;;;12.20;99.90;;;;;;5043913;28;20531;-62
2023/05/20 02:18:11;;;;;;;6.53;4.30;;;12.30;99.90;;;;;;5044946;28;20227;-60
2023/05/20 02:20:38;;;;;;;6.60;3.77;;;12.30;99.90;;;;;;5041848;28;20350;-60
2023/05/20 02:23:05;;;;;;;10.03;4.50;;;12.30;99.90;;;;;;5041690;28;20204;-60
2023/05/20 02:25:32;;;;;;;7.60;4.23;;;12.20;99.90;;;;;;5044738;28;20236;-60
2023/05/20 02:27:59;;;;;;;8.77;4.60;;;12.30;99.90;;;;;;5043404;28;20207;-60
2023/05/20 02:30:26;;;;;;;8.73;4.30;;;12.30;99.90;;;;;;5041425;28;20207;-60
2023/05/20 02:32:53;;;;;;;7.23;4.00;;;12.40;99.90;;;;;;5042920;28;21278;-60
2023/05/20 02:35:20;;;;;;;9.30;4.20;;;12.40;99.90;;;;;;5044630;28;20218;-60
2023/05/20 02:37:47;;;;;;;5.93;4.30;;;12.40;99.90;;;;;;5043452;28;20207;-60
2023/05/20 02:40:14;;;;;;;8.80;3.80;;;12.50;99.90;;;;;;5043234;28;20280;-60
2023/05/20 02:42:41;;;;;;;9.43;4.37;;;12.40;99.90;;;;;;5042797;28;20204;-60
2023/05/20 02:45:08;;;;;;;6.27;3.93;;;12.30;99.90;;;;;;5041457;28;20720;-60
2023/05/20 02:47:35;;;;;;;5.27;3.87;;;12.30;99.90;;;;;;5045093;28;20189;-60
2023/05/20 02:50:03;;;;;;;7.50;3.73;;;12.30;99.90;;;;;;5041929;28;20215;-60
2023/05/20 02:52:29;;;;;;;7.10;4.10;;;12.20;99.90;;;;;;5040263;28;20210;-61
2023/05/20 02:54:57;;;;;;;7.00;4.20;;;12.20;99.90;;;;;;5038609;28;20211;-61
2023/05/20 02:57:26;;;;;;;7.67;3.73;;;12.10;99.90;;;;;;5047984;28;20250;-60
2023/05/20 02:59:53;;;;;;;7.50;4.70;;;12.20;99.90;;;;;;5047027;28;20216;-61
2023/05/20 03:02:22;;;;;;;8.23;3.80;;;12.30;99.90;;;;;;5045251;28;20210;-60
2023/05/20 03:04:49;;;;;;;5.80;3.70;;;12.30;99.90;;;;;;5044407;28;20202;-61
2023/05/20 03:07:18;;;;;;;8.23;4.07;;;12.10;99.90;;;;;;5045072;28;20300;-61
2023/05/20 03:09:45;;;;;;;8.83;4.20;;;12.10;99.90;;;;;;5049753;28;20201;-60
2023/05/20 03:12:12;;;;;;;7.40;4.03;;;12.10;99.90;;;;;;5039844;28;20668;-61
2023/05/20 03:14:39;;;;;;;6.93;3.87;;;12.10;99.90;;;;;;5046355;28;20204;-60
2023/05/20 03:17:07;;;;;;;8.43;4.03;;;12.10;99.90;;;;;;5046371;28;20239;-60
2023/05/20 03:19:34;;;;;;;5.23;4.40;;;12.10;99.90;;;;;;5046971;28;20221;-61
2023/05/20 03:22:01;;;;;;;7.93;3.60;;;12.00;99.90;;;;;;5046730;28;20215;-61
2023/05/20 03:24:28;;;;;;;4.63;4.07;;;11.90;99.90;;;;;;5048251;28;20213;-60
2023/05/20 03:26:55;;;;;;;6.17;4.10;;;11.90;99.90;;;;;;5047030;28;20211;-60
2023/05/20 03:29:22;;;;;;;10.97;5.60;;;11.90;99.90;;;;;;5045836;28;20200;-60
2023/05/20 03:31:49;;;;;;;5.30;3.70;;;11.80;99.90;;;;;;5043445;28;20224;-60
2023/05/20 03:34:16;;;;;;;6.17;4.20;;;11.80;99.90;;;;;;5045104;28;20580;-60
2023/05/20 03:36:43;;;;;;;5.17;3.57;;;11.80;99.90;;;;;;5045510;28;20207;-60
2023/05/20 03:39:11;;;;;;;4.93;3.53;;;11.80;99.90;;;;;;5044627;28;20223;-60
2023/05/20 03:41:38;;;;;;;8.13;4.40;;;11.80;99.90;;;;;;5044623;28;20358;-62
2023/05/20 03:44:05;;;;;;;9.10;4.73;;;11.70;99.90;;;;;;5044332;28;20206;-61
2023/05/20 03:46:33;;;;;;;10.63;4.20;;;11.80;99.90;;;;;;5043971;28;20210;-61
2023/05/20 03:49:04;;;;;;;9.17;3.73;;;11.80;99.90;;;;;;5041447;28;20298;-60
2023/05/20 03:51:31;;;;;;;6.97;4.97;;;11.80;99.90;;;;;;5007839;28;20938;-60
2023/05/20 03:53:58;;;;;;;5.17;3.77;;;11.80;99.90;;;;;;5043066;28;20540;-61
2023/05/20 03:56:25;;;;;;;8.60;4.23;;;11.70;99.90;;;;;;5048602;28;20218;-62
2023/05/20 03:58:52;;;;;;;7.63;4.70;;;11.80;99.90;;;;;;5058164;28;20210;-60
2023/05/20 04:01:20;;;;;;;8.40;4.43;;;11.80;99.90;;;;;;5044288;28;20216;-61
2023/05/20 04:03:47;;;;;;;9.53;4.13;;;11.80;99.90;;;;;;5042655;28;20707;-60
2023/05/20 04:06:14;;;;;;;7.87;4.33;;;11.70;99.90;;;;;;5048046;28;20223;-60
2023/05/20 04:08:41;;;;;;;9.00;4.47;;;11.70;99.90;;;;;;5040262;28;20225;-60
2023/05/20 04:11:08;;;;;;;5.50;4.00;;;11.70;99.90;;;;;;5041905;28;20199;-61
2023/05/20 04:13:34;;;;;;;6.90;4.43;;;11.80;99.90;;;;;;5040147;28;20217;-62
2023/05/20 04:16:04;;;;;;;9.77;4.97;;;11.80;99.90;;;;;;5044131;28;20218;-60
2023/05/20 04:18:31;;;;;;;6.00;4.20;;;11.70;99.90;;;;;;5043731;28;20779;-61
2023/05/20 04:21:00;;;;;;;6.53;3.70;;;11.70;99.90;;;;;;5043295;28;20246;-60
2023/05/20 04:23:27;;;;;;;7.17;3.97;;;11.60;99.90;;;;;;5042230;28;20779;-60
2023/05/20 04:25:54;;;;;;;5.03;4.30;;;11.70;99.90;;;;;;5045596;28;20294;-60
2023/05/20 04:28:22;;;;;;;8.53;4.13;;;11.70;99.90;;;;;;5042193;28;20204;-61
2023/05/20 04:31:03;;;;;;;7.47;4.10;;;11.70;99.90;;;;;;5044683;28;20220;-61
2023/05/20 04:33:31;;;;;;;10.30;4.20;;;11.80;99.90;;;;;;5042524;28;20650;-61
2023/05/20 04:36:00;;;;;;;7.40;4.80;;;11.70;99.90;;;;;;5061073;28;20251;-60
2023/05/20 04:38:31;;;;;;;6.93;4.17;;;11.80;99.90;;;;;;5043822;28;20326;-63
2023/05/20 04:40:59;;;;;;;7.27;4.50;;;11.80;99.90;;;;;;5043880;28;20242;-61
2023/05/20 04:43:28;;;;;;;7.97;4.30;;;11.90;99.90;;;;;;5057887;28;20292;-61
2023/05/20 04:45:56;;;;;;;11.17;4.53;;;11.90;99.90;;;;;;5043855;28;20747;-61
2023/05/20 04:48:23;;;;;;;10.93;3.70;;;11.90;99.90;;;;;;5045132;28;20624;-60
2023/05/20 04:50:51;;;;;;;7.40;4.33;;;11.90;99.90;;;;;;5041455;28;20214;-61
2023/05/20 04:53:18;;;;;;;6.57;3.90;;;11.90;99.90;;;;;;5042766;28;20221;-60
2023/05/20 04:55:45;;;;;;;4.47;3.90;;;12.10;99.90;;;;;;5043983;28;20211;-61
2023/05/20 04:58:16;;;;;;;7.17;4.37;;;12.00;99.90;;;;;;5047526;28;20207;-60
2023/05/20 05:00:44;;;;;;;9.83;4.40;;;12.00;99.90;;;;;;5046355;28;20212;-61
2023/05/20 05:03:14;;;;;;;6.53;4.23;;;12.10;99.90;;;;;;5040900;28;20236;-65
2023/05/20 05:05:41;;;;;;;5.53;3.77;;;12.20;99.90;;;;;;5047771;28;20255;-60
2023/05/20 05:08:10;;;;;;;7.23;4.60;;;12.10;99.90;;;;;;5044629;28;21136;-61
2023/05/20 05:10:37;;;;;;;5.67;4.30;;;12.10;99.90;;;;;;5046655;28;20210;-61
2023/05/20 05:13:04;;;;;;;6.17;3.90;;;12.30;99.90;;;;;;5043192;28;20201;-60
2023/05/20 05:15:30;;;;;;;4.67;3.70;;;12.40;99.90;;;;;;5046326;28;20206;-63
2023/05/20 05:17:58;;;;;;;4.97;4.20;;;12.50;99.90;;;;;;5044833;28;21005;-61
2023/05/20 05:20:25;;;;;;;6.70;4.17;;;12.60;99.90;;;;;;5044888;28;20221;-60
2023/05/20 05:22:52;;;;;;;7.47;3.50;;;12.60;99.90;;;;;;5042768;28;20224;-61
2023/05/20 05:25:19;;;;;;;5.07;4.07;;;12.60;99.90;;;;;;5047107;28;20194;-61
2023/05/20 05:27:49;;;;;;;7.13;3.93;;;12.60;99.90;;;;;;5043972;28;20200;-62
2023/05/20 05:30:16;;;;;;;5.50;3.70;;;12.80;99.90;;;;;;5045332;28;20609;-61
2023/05/20 05:32:43;;;;;;;4.90;4.13;;;12.80;99.90;;;;;;5050280;28;22286;-61
2023/05/20 05:35:10;;;;;;;5.23;4.07;;;12.90;99.90;;;;;;5045272;28;20208;-61
2023/05/20 05:37:37;;;;;;;8.63;4.10;;;12.90;99.90;;;;;;5045545;28;20636;-61
2023/05/20 05:40:04;;;;;;;5.63;4.07;;;12.80;99.90;;;;;;5044279;28;20693;-61
2023/05/20 05:42:31;;;;;;;6.40;4.20;;;12.90;99.90;;;;;;5040455;28;20429;-60
2023/05/20 05:44:58;;;;;;;5.40;3.80;;;13.10;99.90;;;;;;5038932;28;20200;-60
2023/05/20 05:47:31;;;;;;;8.70;4.03;;;13.00;99.90;;;;;;5044768;28;20642;-61
2023/05/20 05:49:58;;;;;;;5.70;4.00;;;13.20;99.90;;;;;;5044196;28;20628;-60
2023/05/20 05:52:26;;;;;;;6.17;3.53;;;13.20;99.90;;;;;;5041660;28;20322;-61
2023/05/20 05:54:54;;;;;;;9.63;4.33;;;13.20;99.90;;;;;;5042944;28;20659;-61
2023/05/20 05:57:21;;;;;;;7.37;3.80;;;13.30;99.90;;;;;;5035015;28;20211;-61
2023/05/20 05:59:48;;;;;;;7.10;3.97;;;13.30;99.90;;;;;;5039796;28;20253;-60
2023/05/20 06:02:15;;;;;;;9.20;3.73;;;13.20;99.90;;;;;;5033809;28;20224;-61
2023/05/20 06:04:42;;;;;;;6.03;3.80;;;13.30;99.90;;;;;;5038821;28;20642;-60
2023/05/20 06:07:09;;;;;;;5.67;3.90;;;13.30;99.90;;;;;;5036074;28;20524;-60
2023/05/20 06:09:37;;;;;;;7.43;3.77;;;13.40;99.90;;;;;;5041124;28;20281;-62
2023/05/20 06:12:04;;;;;;;8.83;4.10;;;13.60;99.90;;;;;;5044004;28;20681;-61
2023/05/20 06:14:31;;;;;;;5.10;3.80;;;13.70;99.90;;;;;;5040895;28;20256;-60
2023/05/20 06:16:58;;;;;;;3.97;3.47;;;13.80;99.90;;;;;;5041217;28;20243;-64
2023/05/20 06:19:25;;;;;;;5.87;3.70;;;13.90;99.90;;;;;;5044415;28;20208;-61
2023/05/20 06:21:52;;;;;;;6.43;3.33;;;13.90;99.90;;;;;;5044047;28;20258;-61
2023/05/20 06:24:19;;;;;;;6.03;3.90;;;14.00;99.90;;;;;;5041592;28;20272;-60
2023/05/20 06:26:50;;;;;;;5.53;3.53;;;14.00;99.90;;;;;;5045802;28;20636;-61
2023/05/20 06:29:16;;;;;;;8.00;3.83;;;14.00;99.90;;;;;;5039486;28;20683;-61
2023/05/20 06:31:43;;;;;;;6.93;3.50;;;14.20;99.90;;;;;;5040054;28;20302;-61
2023/05/20 06:34:10;;;;;;;7.90;3.70;;;14.20;99.90;;;;;;5043014;28;20364;-60
2023/05/20 06:36:37;;;;;;;7.93;3.43;;;14.30;99.90;;;;;;5042892;28;20243;-61
2023/05/20 06:39:10;;;;;;;7.83;4.00;;;14.40;99.90;;;;;;5043396;28;20652;-60
2023/05/20 06:41:38;;;;;;;4.47;3.47;;;14.50;99.90;;;;;;5038326;28;20617;-61
2023/05/20 06:44:06;;;;;;;4.63;2.97;;;14.60;99.90;;;;;;5041145;28;21877;-67
2023/05/20 06:46:33;;;;;;;6.13;4.00;;;14.90;99.90;;;;;;5041865;28;20211;-60
2023/05/20 06:49:00;;;;;;;4.70;3.10;;;15.00;99.90;;;;;;5038339;28;20295;-61
2023/05/20 06:51:27;;;;;;;8.60;3.53;;;15.30;99.90;;;;;;5023242;28;20197;-61
2023/05/20 06:53:54;;;;;;;5.17;3.40;;;15.50;99.90;;;;;;5034029;28;20209;-60
2023/05/20 06:56:26;;;;;;;8.00;3.90;;;15.60;99.90;;;;;;4880837;28;10000414;-61
2023/05/20 06:58:54;;;;;;;5.27;3.27;;;15.80;99.90;;;;;;5018764;28;21349;-61
2023/05/20 07:01:21;;;;;;;5.33;3.47;;;15.80;99.90;;;;;;5024074;28;20216;-61
2023/05/20 07:03:48;;;;;;;5.27;2.97;;;16.00;99.90;;;;;;5045431;28;20281;-61
2023/05/20 07:06:15;;;;;;;8.03;3.07;;;16.20;99.90;;;;;;5026489;28;20627;-61
2023/05/20 07:08:43;;;;;;;5.33;3.97;;;16.00;99.90;;;;;;5036696;28;20213;-61
2023/05/20 07:11:10;;;;;;;6.40;3.70;;;16.00;99.90;;;;;;5054337;28;20212;-61
2023/05/20 07:13:37;;;;;;;5.20;3.00;;;16.20;99.90;;;;;;5035773;28;20232;-61
2023/05/20 07:16:04;;;;;;;3.77;2.70;;;16.40;99.90;;;;;;5030899;28;20214;-61
2023/05/20 07:18:31;;;;;;;5.83;3.50;;;16.60;99.90;;;;;;5050062;28;20250;-62
2023/05/20 07:20:58;;;;;;;4.43;3.00;;;16.60;99.90;;;;;;5038488;28;20242;-61
2023/05/20 07:23:25;;;;;;;4.30;2.53;;;16.90;99.90;;;;;;5034552;28;20245;-63
2023/05/20 07:25:53;;;;;;;2.97;2.67;;;17.10;99.90;;;;;;5037129;28;20540;-63
2023/05/20 07:28:21;;;;;;;7.43;3.10;;;17.10;99.90;;;;;;5034648;28;20199;-64
2023/05/20 07:30:51;;;;;;;5.07;2.90;;;17.40;99.90;;;;;;5033098;28;20946;-63
2023/05/20 07:33:21;;;;;;;5.73;2.47;;;17.50;99.90;;;;;;5033319;28;20626;-63
2023/05/20 07:35:48;;;;;;;3.40;2.70;;;17.60;99.90;;;;;;5028980;28;20208;-63
2023/05/20 07:38:15;;;;;;;5.30;3.20;;;17.60;99.90;;;;;;5028033;28;20208;-63
2023/05/20 07:40:42;;;;;;;8.10;2.77;;;17.50;99.90;;;;;;5035873;28;20214;-63
2023/05/20 07:43:09;;;;;;;3.93;2.80;;;17.50;99.90;;;;;;5036201;28;21219;-62
2023/05/20 07:45:36;;;;;;;6.33;2.90;;;18.10;99.90;;;;;;5035899;28;20212;-63
2023/05/20 07:48:04;;;;;;;3.70;2.80;;;17.80;99.90;;;;;;5035646;28;20211;-63
2023/05/20 07:50:33;;;;;;;3.17;2.80;;;17.60;99.90;;;;;;5035476;28;20699;-63
2023/05/20 07:52:59;;;;;;;4.10;2.63;;;17.70;99.90;;;;;;5042771;28;20622;-63
2023/05/20 07:55:26;;;;;;;4.97;2.60;;;17.90;99.90;;;;;;5033569;28;20670;-63
2023/05/20 07:57:53;;;;;;;3.13;2.70;;;18.10;99.90;;;;;;5039769;28;20227;-62
2023/05/20 08:00:20;;;;;;;5.40;2.50;;;17.90;99.90;;;;;;5043184;28;20606;-62
2023/05/20 08:02:47;;;;;;;11.07;2.30;;;18.20;99.90;;;;;;5044580;28;20230;-62
2023/05/20 08:05:14;;;;;;;2.63;2.30;;;18.40;99.90;;;;;;5040440;28;20287;-62
2023/05/20 08:07:41;;;;;;;5.93;2.43;;;18.20;99.90;;;;;;5045327;28;20759;-63
2023/05/20 08:10:09;;;;;;;4.00;2.47;;;18.20;99.90;;;;;;5037975;28;20200;-62
2023/05/20 08:12:35;;;;;;;5.67;2.40;;;18.30;99.90;;;;;;5038726;28;20203;-61
2023/05/20 08:15:03;;;;;;;2.83;1.87;;;18.80;99.90;;;;;;5039972;28;20219;-63
2023/05/20 08:17:31;;;;;;;5.43;2.50;;;19.50;99.90;;;;;;5045257;28;20253;-62
2023/05/20 08:19:58;;;;;;;4.47;2.10;;;19.40;99.90;;;;;;5038784;28;20735;-62
2023/05/20 08:22:25;;;;;;;2.53;2.30;;;19.50;99.90;;;;;;5038721;28;20209;-61
2023/05/20 08:24:52;;;;;;;2.73;2.20;;;19.00;99.90;;;;;;5039450;28;20207;-61
2023/05/20 08:27:19;;;;;;;3.67;2.40;;;19.00;99.90;;;;;;5041833;28;20551;-62
2023/05/20 08:29:45;;;;;;;5.77;2.40;;;18.90;99.90;;;;;;5044868;28;20269;-62
2023/05/20 08:32:12;;;;;;;3.23;1.97;;;19.10;99.90;;;;;;5034952;28;20223;-62
2023/05/20 08:34:39;;;;;;;5.20;2.27;;;19.00;99.90;;;;;;5040359;28;20206;-63
2023/05/20 08:37:06;;;;;;;1.77;1.63;;;19.00;99.90;;;;;;5040090;28;20199;-64
2023/05/20 08:39:33;;;;;;;8.50;2.80;;;19.20;99.90;;;;;;5038455;28;20295;-64
2023/05/20 08:42:01;;;;;;;5.27;2.30;;;19.00;99.90;;;;;;5043344;28;20216;-62
2023/05/20 08:44:29;;;;;;;6.17;2.00;;;18.80;99.90;;;;;;5042231;28;20245;-62
2023/05/20 08:46:57;;;;;;;2.50;1.90;;;18.90;99.90;;;;;;5043056;28;20197;-62
2023/05/20 08:49:24;;;;;;;4.73;2.40;;;19.70;99.90;;;;;;5040778;28;20192;-62
2023/05/20 08:51:51;;;;;;;2.77;2.20;;;19.60;99.90;;;;;;5034330;28;20941;-62
2023/05/20 08:54:20;;;;;;;8.03;2.93;;;19.30;99.90;;;;;;5034271;28;20927;-62
2023/05/20 08:56:47;;;;;;;3.80;2.47;;;19.50;99.90;;;;;;5038913;28;20195;-62
2023/05/20 08:59:16;;;;;;;5.10;2.13;;;19.50;99.90;;;;;;5042600;28;20196;-62
2023/05/20 09:01:43;;;;;;;4.67;2.13;;;20.10;99.90;;;;;;5037599;28;20975;-63
2023/05/20 09:04:11;;;;;;;4.47;2.37;;;20.10;99.90;;;;;;5036554;28;20231;-63
2023/05/20 09:06:43;;;;;;;4.70;2.07;;;20.10;99.90;;;;;;5034024;28;20224;-62
2023/05/20 09:09:11;;;;;;;2.23;1.87;;;20.30;99.90;;;;;;5036983;28;20208;-62
2023/05/20 09:11:40;;;;;;;4.37;2.00;;;20.50;99.90;;;;;;5040446;28;20206;-62
2023/05/20 09:14:07;;;;;;;3.70;2.10;;;20.70;99.90;;;;;;5041837;28;20861;-62
2023/05/20 09:16:34;;;;;;;4.43;2.80;;;20.10;99.90;;;;;;5046864;28;20203;-63
2023/05/20 09:19:05;;;;;;;2.53;2.20;;;20.00;99.90;;;;;;5041172;28;20251;-66
2023/05/20 09:21:32;;;;;;;2.20;1.80;;;19.90;99.90;;;;;;5036582;28;20222;-63
2023/05/20 09:24:01;;;;;;;5.50;2.27;;;19.90;99.90;;;;;;5026339;28;20225;-63
2023/05/20 09:26:31;;;;;;;3.80;2.10;;;19.90;99.90;;;;;;5030774;28;20246;-63
2023/05/20 09:28:59;;;;;;;3.50;2.40;;;19.70;99.90;;;;;;5039410;28;20285;-62
2023/05/20 09:31:33;;;;;;;3.37;2.20;;;19.70;99.90;;;;;;5037788;28;20196;-63
2023/05/20 09:34:00;;;;;;;3.60;2.13;;;20.40;99.90;;;;;;5037650;28;20589;-62
2023/05/20 09:36:32;;;;;;;3.77;2.17;;;20.20;99.90;;;;;;5042146;28;20203;-63
2023/05/20 09:39:04;;;;;;;3.77;2.20;;;20.10;99.90;;;;;;5043386;28;20577;-62
2023/05/20 09:42:08;;;;;;;2.80;2.20;;;19.40;99.90;;;;;;5041083;28;20214;-62
2023/05/20 09:44:35;;;;;;;3.83;2.17;;;20.00;99.90;;;;;;5036410;28;20257;-63
2023/05/20 09:47:06;;;;;;;6.20;2.30;;;19.60;99.90;;;;;;5039235;28;20241;-61
2023/05/20 09:49:35;;;;;;;4.00;1.90;;;19.60;99.90;;;;;;5043413;28;20643;-61
2023/05/20 09:52:03;;;;;;;3.33;2.10;;;19.60;99.90;;;;;;5032684;28;20939;-64
2023/05/20 09:54:30;;;;;;;7.93;2.00;;;20.20;99.90;;;;;;5032560;28;20200;-61
2023/05/20 09:56:59;;;;;;;1.90;1.60;;;20.30;99.90;;;;;;5039850;28;20204;-61
2023/05/20 09:59:26;;;;;;;4.00;1.70;;;20.40;99.90;;;;;;5036262;28;20600;-61
2023/05/20 10:01:53;;;;;;;3.93;2.00;;;20.70;99.90;;;;;;5036551;28;20599;-61
2023/05/20 10:04:22;;;;;;;8.77;2.73;;;20.60;99.90;;;;;;5031041;28;20310;-64
2023/05/20 10:07:20;;;;;;;5.63;2.37;;;20.50;99.90;;;;;;5038107;28;20200;-61
2023/05/20 10:10:28;;;;;;;2.43;1.77;;;20.50;99.90;;;;;;5040974;28;20196;-63
2023/05/20 10:13:17;;;;;;;4.10;1.97;;;20.60;99.90;;;;;;5038609;28;20212;-61
2023/05/20 10:15:47;;;;;;;5.07;1.87;;;20.50;99.90;;;;;;5031869;28;20644;-61
2023/05/20 10:18:51;;;;;;;3.10;1.87;;;20.70;99.90;;;;;;5040047;28;20715;-62
2023/05/20 10:21:24;;;;;;;3.00;2.10;;;20.60;99.90;;;;;;5038610;28;20208;-61
2023/05/20 10:23:51;;;;;;;3.63;2.10;;;20.60;99.90;;;;;;5042215;28;20266;-62
2023/05/20 10:26:18;;;;;;;2.77;2.30;;;20.50;99.90;;;;;;5042315;28;20243;-62
2023/05/20 10:28:46;;;;;;;2.00;1.80;;;20.80;99.90;;;;;;5039195;28;20682;-62
2023/05/20 10:31:20;;;;;;;2.17;1.97;;;20.40;99.90;;;;;;5038094;28;20199;-61
2023/05/20 10:33:48;;;;;;;3.37;2.00;;;20.60;99.90;;;;;;5031123;28;20318;-62
2023/05/20 10:36:30;;;;;;;2.13;1.70;;;20.70;99.90;;;;;;5034124;28;20199;-61
2023/05/20 10:38:58;;;;;;;5.27;2.20;;;20.60;99.90;;;;;;5035055;28;20210;-61
2023/05/20 10:41:27;;;;;;;2.50;1.80;;;20.60;99.90;;;;;;5033265;28;20208;-64
2023/05/20 10:44:04;;;;;;;2.23;2.03;;;20.60;99.90;;;;;;5030254;28;20330;-61
2023/05/20 10:46:33;;;;;;;1.93;1.70;;;20.60;99.90;;;;;;5033105;28;20210;-61
2023/05/20 10:49:20;;;;;;;2.10;1.80;;;20.50;99.90;;;;;;5026948;28;20219;-61
2023/05/20 10:51:51;;;;;;;2.33;1.67;;;20.60;99.90;;;;;;5014284;28;20208;-61
2023/05/20 10:54:18;;;;;;;3.90;1.70;;;20.90;99.90;;;;;;5029572;28;20200;-61
2023/05/20 10:56:52;;;;;;;2.27;1.70;;;21.10;99.90;;;;;;5034465;28;20303;-61
2023/05/20 10:59:23;;;;;;;2.63;2.10;;;20.80;99.90;;;;;;5052615;28;20671;-61
2023/05/20 11:01:50;;;;;;;3.13;1.97;;;20.70;99.90;;;;;;5038435;28;20247;-61
2023/05/20 11:04:18;;;;;;;7.97;2.03;;;20.60;99.90;;;;;;5036846;28;20219;-62
2023/05/20 11:06:54;;;;;;;2.90;2.20;;;20.60;99.90;;;;;;5038980;28;20211;-62
2023/05/20 11:09:22;;;;;;;2.80;2.20;;;20.90;99.90;;;;;;5041015;28;20572;-61
2023/05/20 11:11:51;;;;;;;3.67;1.60;;;20.70;99.90;;;;;;5050333;28;20200;-61
2023/05/20 11:14:18;;;;;;;3.07;1.80;;;20.60;99.90;;;;;;5037366;28;20225;-61
2023/05/20 11:16:50;;;;;;;6.23;1.90;;;20.40;99.90;;;;;;5042162;28;20723;-61
2023/05/20 11:19:17;;;;;;;2.37;1.90;;;20.80;99.90;;;;;;5037284;28;20205;-61
2023/05/20 11:21:47;;;;;;;2.27;1.87;;;21.20;99.90;;;;;;5038636;28;20207;-63
2023/05/20 11:24:24;;;;;;;2.13;1.73;;;20.70;99.90;;;;;;5041455;28;20240;-61
2023/05/20 11:26:51;;;;;;;2.17;1.90;;;20.70;99.90;;;;;;5052751;28;20210;-62
2023/05/20 11:29:20;;;;;;;3.50;1.70;;;21.20;99.90;;;;;;5027593;28;20196;-62
2023/05/20 11:31:49;;;;;;;3.47;2.00;;;21.20;99.90;;;;;;5036469;28;20233;-62
2023/05/20 11:34:18;;;;;;;4.47;2.27;;;21.00;99.90;;;;;;5047906;28;20204;-62
2023/05/20 11:36:45;;;;;;;4.93;1.87;;;21.50;99.90;;;;;;5048235;28;20202;-61
2023/05/20 11:39:13;;;;;;;2.93;1.70;;;21.60;99.90;;;;;;5045966;28;20236;-62
2023/05/20 11:41:43;;;;;;;5.00;2.50;;;21.00;99.90;;;;;;5044766;28;20595;-63
2023/05/20 11:44:14;;;;;;;5.90;2.77;;;20.40;99.90;;;;;;5044079;28;20258;-62
2023/05/20 11:46:42;;;;;;;6.07;2.27;;;20.20;99.90;;;;;;5048425;28;20196;-61
2023/05/20 11:49:11;;;;;;;3.63;2.03;;;20.10;99.90;;;;;;5066188;28;20338;-63
2023/05/20 11:51:39;;;;;;;3.47;2.30;;;20.00;99.90;;;;;;5050005;28;20206;-61
2023/05/20 11:54:07;;;;;;;4.60;1.57;;;20.30;99.90;;;;;;5049580;28;20206;-63
2023/05/20 11:56:40;;;;;;;6.03;1.90;;;21.10;99.90;;;;;;5051220;28;20212;-62
2023/05/20 11:59:09;;;;;;;2.37;1.80;;;21.40;99.90;;;;;;5062914;28;20207;-61
2023/05/20 12:01:39;;;;;;;6.87;1.97;;;21.60;99.90;;;;;;5050250;28;20659;-61
2023/05/20 12:04:07;;;;;;;2.67;1.90;;;21.30;99.90;;;;;;5049407;28;20586;-61
2023/05/20 12:06:38;;;;;;;3.10;1.90;;;21.20;99.90;;;;;;5049305;28;20615;-61
2023/05/20 12:09:07;;;;;;;4.10;1.73;;;21.70;99.90;;;;;;5048699;28;20196;-61
2023/05/20 12:11:36;;;;;;;2.40;1.80;;;22.10;99.90;;;;;;5050736;28;20196;-61
2023/05/20 12:14:03;;;;;;;3.30;1.70;;;21.80;99.90;;;;;;5046598;28;20534;-61
2023/05/20 12:16:31;;;;;;;2.30;2.10;;;21.60;99.90;;;;;;5050094;28;20211;-61
2023/05/20 12:18:59;;;;;;;2.60;1.60;;;21.60;99.90;;;;;;5049314;28;20231;-61
2023/05/20 12:21:28;;;;;;;4.07;2.10;;;21.90;99.90;;;;;;5048867;28;20271;-61
2023/05/20 12:23:58;;;;;;;3.07;1.77;;;21.70;99.90;;;;;;5046745;28;20602;-61
2023/05/20 12:26:26;;;;;;;3.03;1.53;;;21.70;99.90;;;;;;5050251;28;20932;-61
2023/05/20 12:28:53;;;;;;;4.60;1.90;;;21.90;99.90;;;;;;5045814;28;20207;-61
2023/05/20 12:31:20;;;;;;;3.50;2.03;;;21.60;99.90;;;;;;5049943;28;20555;-61
2023/05/20 12:33:47;;;;;;;2.97;1.90;;;21.80;99.90;;;;;;5048797;28;20228;-61
2023/05/20 12:36:14;;;;;;;3.77;1.67;;;22.10;99.90;;;;;;5046536;28;20285;-61
2023/05/20 12:38:41;;;;;;;2.87;1.93;;;21.90;99.90;;;;;;5049662;28;20212;-61
2023/05/20 12:41:08;;;;;;;3.40;1.80;;;21.60;99.90;;;;;;5025888;28;20229;-63
2023/05/20 12:43:36;;;;;;;3.47;1.90;;;21.50;99.90;;;;;;5048877;28;20548;-61
2023/05/20 12:46:03;;;;;;;3.43;1.90;;;21.50;99.90;;;;;;5050711;28;20207;-63
2023/05/20 12:48:30;;;;;;;2.83;1.60;;;21.40;99.90;;;;;;5048576;28;20188;-61
2023/05/20 12:50:58;;;;;;;2.43;1.63;;;21.10;99.90;;;;;;5047414;28;20200;-61
2023/05/20 12:53:24;;;;;;;2.10;1.40;;;21.20;99.90;;;;;;5047903;28;20236;-61